Rumo A Pesca — CUOK — position and weather

sailwx.info

Track history (hours):
 
Tides and Currents Weather Stations Pressure Air Temp Water Temp Dewpoint Dewpoint Depression Visibility Wind Speed Wind Dir Waves Ship Positions

Rumo A Pesca

Last reported at 2017-Nov-07 17:45 UTC. Time now 2017-Dec-11 15:24 UTC.
Position N 41°11' W 008°42'.
Warning: this ship's position is 33 days out of date.

Length 26 m.

Type: Fishing. MMSI: 263408570.

Date/timePositionNaut miles runAvg speedWind from/ knotsBaromVisibWave heightAir tempDewpointWater temp
2017-Nov-07 17:45N 41°11' W 008°42'0 0.0
2017-Nov-07 17:31N 41°11' W 008°42'0 0.0
2017-Nov-07 17:00N 41°11' W 008°42'3 5.3
2017-Nov-07 16:31N 41°08' W 008°42'8 0.5
2017-Nov-06 22:59N 40°60' W 008°41'511.4
2017-Nov-06 22:31N 41°05' W 008°42'611.3
2017-Nov-06 22:01N 41°11' W 008°42'9 0.4
2017-Nov-06 00:31N 41°02' W 008°42'011.9
2017-Nov-06 00:29N 41°02' W 008°42'611.8
2017-Nov-06 00:01N 41°08' W 008°42'3 5.6
2017-Nov-05 23:30N 41°11' W 008°42'0 0.0
2017-Nov-05 23:00N 41°11' W 008°42'  
2017-Nov-03 11:29N 41°11' W 008°42'0 0.0
2017-Nov-03 11:00N 41°11' W 008°42'0 0.0
2017-Nov-03 10:30N 41°11' W 008°42'0 0.0
2017-Nov-03 10:00N 41°11' W 008°42'0 0.0
2017-Nov-03 09:30N 41°11' W 008°42'0 0.0
2017-Nov-03 09:00N 41°11' W 008°42'0 0.0
2017-Nov-03 08:30N 41°11' W 008°42'0 0.0
2017-Nov-03 08:00N 41°11' W 008°42'0 0.0
2017-Nov-03 07:30N 41°11' W 008°42'5 9.1
2017-Nov-03 07:00N 41°06' W 008°44'2 0.3
2017-Nov-02 22:37N 41°04' W 008°43'111.1
2017-Nov-02 22:30N 41°05' W 008°43'510.8
2017-Nov-02 22:00N 41°11' W 008°42'0 0.0
2017-Nov-02 18:03N 41°11' W 008°42'0 0.0
2017-Nov-02 18:01N 41°11' W 008°42'0 0.0
2017-Nov-02 07:58N 41°11' W 008°42'0 0.0
2017-Nov-02 07:30N 41°11' W 008°42'0 0.0
2017-Nov-02 07:00N 41°11' W 008°42'0 0.0
2017-Nov-02 06:30N 41°11' W 008°42'0 0.0
2017-Nov-02 06:00N 41°11' W 008°42'3 5.1
2017-Nov-02 05:30N 41°08' W 008°43'4 0.7
2017-Nov-01 23:32N 41°04' W 008°43'011.3
2017-Nov-01 23:30N 41°05' W 008°43'611.4
2017-Nov-01 23:00N 41°10' W 008°42'1 0.0
2017-Oct-31 16:44N 41°11' W 008°42'0 0.0
2017-Oct-31 16:30N 41°11' W 008°42'0 0.0
2017-Oct-31 08:54N 41°11' W 008°42'0 0.2
2017-Oct-31 08:30N 41°11' W 008°42'0 0.2
2017-Oct-31 08:00N 41°11' W 008°42'0 0.0
2017-Oct-31 07:30N 41°11' W 008°42'0 0.0
2017-Oct-31 07:00N 41°11' W 008°42'4 7.4
2017-Oct-31 06:30N 41°07' W 008°43'1 0.0
2017-Oct-29 23:18N 41°07' W 008°42'311.6
2017-Oct-29 23:00N 41°10' W 008°42'  
Track history (hours):
 
Tides and Currents Weather Stations Pressure Air Temp Water Temp Dewpoint Dewpoint Depression Visibility Wind Speed Wind Dir Waves Ship Positions

Rumo A Pesca

Last reported at 2017-Nov-07 17:45 UTC. Time now 2017-Dec-11 15:24 UTC.
Position N 41°11' W 008°42'.
Warning: this ship's position is 33 days out of date.

Length 26 m.

Type: Fishing. MMSI: 263408570.

Date/timePositionNaut miles runAvg speedWind from/ knotsBaromVisibWave heightAir tempDewpointWater temp
2017-Nov-07 17:45N 41°11' W 008°42'0 0.0
2017-Nov-07 17:31N 41°11' W 008°42'0 0.0
2017-Nov-07 17:00N 41°11' W 008°42'3 5.3
2017-Nov-07 16:31N 41°08' W 008°42'8 0.5
2017-Nov-06 22:59N 40°60' W 008°41'511.4
2017-Nov-06 22:31N 41°05' W 008°42'611.3
2017-Nov-06 22:01N 41°11' W 008°42'9 0.4
2017-Nov-06 00:31N 41°02' W 008°42'011.9
2017-Nov-06 00:29N 41°02' W 008°42'611.8
2017-Nov-06 00:01N 41°08' W 008°42'3 5.6
2017-Nov-05 23:30N 41°11' W 008°42'0 0.0
2017-Nov-05 23:00N 41°11' W 008°42'  
2017-Nov-03 11:29N 41°11' W 008°42'0 0.0
2017-Nov-03 11:00N 41°11' W 008°42'0 0.0
2017-Nov-03 10:30N 41°11' W 008°42'0 0.0
2017-Nov-03 10:00N 41°11' W 008°42'0 0.0
2017-Nov-03 09:30N 41°11' W 008°42'0 0.0
2017-Nov-03 09:00N 41°11' W 008°42'0 0.0
2017-Nov-03 08:30N 41°11' W 008°42'0 0.0
2017-Nov-03 08:00N 41°11' W 008°42'0 0.0
2017-Nov-03 07:30N 41°11' W 008°42'5 9.1
2017-Nov-03 07:00N 41°06' W 008°44'2 0.3
2017-Nov-02 22:37N 41°04' W 008°43'111.1
2017-Nov-02 22:30N 41°05' W 008°43'510.8
2017-Nov-02 22:00N 41°11' W 008°42'0 0.0
2017-Nov-02 18:03N 41°11' W 008°42'0 0.0
2017-Nov-02 18:01N 41°11' W 008°42'0 0.0
2017-Nov-02 07:58N 41°11' W 008°42'0 0.0
2017-Nov-02 07:30N 41°11' W 008°42'0 0.0
2017-Nov-02 07:00N 41°11' W 008°42'0 0.0
2017-Nov-02 06:30N 41°11' W 008°42'0 0.0
2017-Nov-02 06:00N 41°11' W 008°42'3 5.1
2017-Nov-02 05:30N 41°08' W 008°43'4 0.7
2017-Nov-01 23:32N 41°04' W 008°43'011.3
2017-Nov-01 23:30N 41°05' W 008°43'611.4
2017-Nov-01 23:00N 41°10' W 008°42'1 0.0
2017-Oct-31 16:44N 41°11' W 008°42'0 0.0
2017-Oct-31 16:30N 41°11' W 008°42'0 0.0
2017-Oct-31 08:54N 41°11' W 008°42'0 0.2
2017-Oct-31 08:30N 41°11' W 008°42'0 0.2
2017-Oct-31 08:00N 41°11' W 008°42'0 0.0
2017-Oct-31 07:30N 41°11' W 008°42'0 0.0
2017-Oct-31 07:00N 41°11' W 008°42'4 7.4
2017-Oct-31 06:30N 41°07' W 008°43'1 0.0
2017-Oct-29 23:18N 41°07' W 008°42'311.6
2017-Oct-29 23:00N 41°10' W 008°42'  

Dump ship's entire track history